Clifton, OH (45316)

6:25 PM EST on February 10, 2016 (GMT -0500)
Yellow Springs | | Change Station
CLOSE
Current Station
Personal Weather Station
Location: Yellow Springs, OH
Elevation: 988 ft
Nearby Weather Stations

Elev 988 ft 39.79 °N, 83.88 °W | Updated 28 seconds ago

Light Snow
Light Snow
14.9 °F
Feels Like 15 °F
N
0.2
Wind Variable Wind from South
Gusts 2.5 mph

Today
High -- | Low -- °F
--% Chance of Precip.
Yesterday
High -- | Low -- °F
Precip. -- in
Pressure 30.08 in
Visibility 10.0 miles
Clouds Overcast 3900 ft
Windchill 15 °F
Dew Point 4 °F
Humidity 61%
Rainfall 0.00 in
Snow Depth Not available.
7:34 AM 6:05 PM
Waxing Crescent, 8% visible
METAR KSGH 102256Z AUTO 24014KT 10SM -SN OVC039 M10/M13 A3002 RMK AO2 T11001133 P0000 SLP184
Pressure 30.08 in
Visibility 10.0 miles
Clouds Overcast 3900 ft
Windchill 15 °F
Dew Point 4 °F
Humidity 61%
Rainfall 0.00 in
Snow Depth Not available.
7:34 AM 6:05 PM
Waxing Crescent, 8% visible
METAR KSGH 102256Z AUTO 24014KT 10SM -SN OVC039 M10/M13 A3002 RMK AO2 T11001133 P0000 SLP184

10-Day Weather Forecast

Almanac

Astronomy

Feb. 10, 2016 Rise Set
Actual Time
Civil Twilight
Nautical Twilight
Astronomical Twilight
Moon
Length of Visible Light
Length of Day
Tomorrow will be .
, % of the Moon is Illuminated

Today's Extremes

State Highs State Lows

Community

WunderPhotos

Upload Photos

1,891,935 photos uploaded!

WunderBlog® & News

Nearby

Air Quality

  Air Quality AQ Index Pollutant
Not available.

Snow Depth

Station Depth Elevation

Earthquake Activity

City Distance Mag. Time & Date
Minimum magnitude displayed is 2.5.

Coastal Water Temperatures

Place Temperature

Stations

Nearby Weather Stations

Station Location Temp. Windchill Dew Point Humidity Wind Precip. Elev Updated Type
                   

Watches & Warnings

There are currently no watches in effect.